Kyokuho Maru No.15 — JI3715 — position and weather

sailwx.info

Track history (hours):
 
Tides and Currents Weather Stations Pressure Air Temp Water Temp Dewpoint Dewpoint Depression Visibility Wind Speed Wind Dir Waves Ship Positions

Kyokuho Maru No.15

Last reported at 2016-May-30 06:33 UTC. Time now 2016-May-30 06:53 UTC.
Position N 35°27' E 139°40'.

Length 63 m; draft 3.2 m.

Type: Tanker. MMSI: 431301714.

Date/timePositionNaut miles runAvg speedWind from/ knotsBaromVisibWave heightAir tempDewpointWater temp
2016-May-30 06:33N 35°27' E 139°40'0 0.1
2016-May-30 05:33N 35°27' E 139°40'4 4.1
2016-May-30 04:33N 35°27' E 139°45'7 7.0
2016-May-30 03:34N 35°30' E 139°53'5 5.4
2016-May-30 02:33N 35°27' E 139°58'0 0.0
2016-May-30 01:34N 35°27' E 139°58'0 0.0
2016-May-30 00:34N 35°27' E 139°58'0 0.0
2016-May-29 23:33N 35°27' E 139°58'3 3.1
2016-May-29 22:34N 35°28' E 139°55'0 0.0
2016-May-29 21:33N 35°28' E 139°55'0 0.0
2016-May-29 20:34N 35°28' E 139°55'0 0.0
2016-May-29 19:34N 35°28' E 139°55'0 0.0
2016-May-29 18:34N 35°28' E 139°55'0 0.0
2016-May-29 17:33N 35°28' E 139°55'0 0.0
2016-May-29 16:34N 35°28' E 139°55'0 0.0
2016-May-29 15:34N 35°28' E 139°55'8 8.4
2016-May-29 14:33N 35°24' E 139°46'1010.2
2016-May-29 13:33N 35°14' E 139°47'2411.1
2016-May-29 11:23N 34°55' E 139°29'  
2016-May-25 05:14N 34°35' E 134°53'710.1
2016-May-25 04:31N 34°37' E 135°01'1010.7
2016-May-25 03:33N 34°37' E 135°14'10 8.8
2016-May-25 02:25N 34°40' E 135°25'0 0.0
2016-May-25 01:31N 34°40' E 135°25'0 0.0
2016-May-25 00:31N 34°40' E 135°25'0 0.0
2016-May-24 23:32N 34°40' E 135°25'3 2.9
2016-May-24 22:31N 34°39' E 135°22'0 0.0
2016-May-24 21:31N 34°39' E 135°22'0 0.0
2016-May-24 20:19N 34°39' E 135°22'0 0.0
2016-May-24 19:31N 34°39' E 135°22'0 0.0
2016-May-24 18:31N 34°39' E 135°22'0 0.0
2016-May-24 17:31N 34°39' E 135°22'0 0.0
2016-May-24 16:19N 34°39' E 135°22'0 0.0
2016-May-24 15:07N 34°39' E 135°22'0 0.0
2016-May-24 14:31N 34°39' E 135°22'0 0.0
2016-May-24 13:33N 34°39' E 135°22'8 8.1
2016-May-24 12:33N 34°33' E 135°16'1212.1
2016-May-24 11:33N 34°23' E 135°08'1212.2
2016-May-24 10:33N 34°11' E 135°03'217 9.0
2016-May-23 10:33N 34°55' E 139°21'1010.2
2016-May-23 09:34N 35°01' E 139°30'1110.9
2016-May-23 08:33N 35°08' E 139°41'10 9.6
2016-May-23 07:33N 35°17' E 139°45'9 9.1
2016-May-23 06:34N 35°26' E 139°45'1010.5
2016-May-23 05:34N 35°31' E 139°56'5 5.0
2016-May-23 04:29N 35°31' E 140°02'0 0.0
2016-May-23 03:29N 35°31' E 140°02'0 0.0
2016-May-23 02:32N 35°31' E 140°02'0 0.0
2016-May-23 01:33N 35°31' E 140°02'0 0.0
2016-May-23 00:33N 35°31' E 140°02'1 0.8
2016-May-22 23:32N 35°31' E 140°01'0 0.0
2016-May-22 22:32N 35°31' E 140°01'3 2.6
2016-May-22 21:33N 35°31' E 139°58'1110.7
2016-May-22 20:33N 35°28' E 139°46'5 4.6
2016-May-22 19:32N 35°27' E 139°40'0 0.0
2016-May-22 18:32N 35°27' E 139°40'0 0.0
2016-May-22 17:29N 35°27' E 139°40'0 0.0
2016-May-22 16:32N 35°27' E 139°40'0 0.0
2016-May-22 15:32N 35°27' E 139°40'0 0.0
2016-May-22 14:32N 35°27' E 139°40'0 0.0
2016-May-22 13:32N 35°27' E 139°40'0 0.0
2016-May-22 12:32N 35°27' E 139°40'0 0.0
2016-May-22 11:32N 35°27' E 139°40'0 0.0
2016-May-22 10:32N 35°27' E 139°40'0 0.0
2016-May-22 09:32N 35°27' E 139°40'0 0.0
2016-May-22 08:32N 35°27' E 139°40'0 0.0
2016-May-22 07:32N 35°27' E 139°40'0 0.0
2016-May-22 06:32N 35°27' E 139°40'0 0.0
2016-May-22 05:32N 35°27' E 139°40'0 0.0
2016-May-22 04:32N 35°27' E 139°40'0 0.0
2016-May-22 03:32N 35°27' E 139°40'0 0.0
2016-May-22 02:32N 35°27' E 139°40'0 0.0
2016-May-22 01:32N 35°27' E 139°40'0 0.0
2016-May-22 00:32N 35°27' E 139°40'0 0.0
2016-May-21 23:32N 35°27' E 139°40'2 2.1
2016-May-21 22:33N 35°27' E 139°42'5 5.4
2016-May-21 21:33N 35°29' E 139°48'0 0.0
2016-May-21 20:33N 35°29' E 139°48'0 0.0
2016-May-21 19:33N 35°29' E 139°48'0 0.0
2016-May-21 18:33N 35°29' E 139°48'0 0.0
2016-May-21 17:33N 35°29' E 139°48'0 0.0
2016-May-21 16:33N 35°29' E 139°48'0 0.0
2016-May-21 15:33N 35°29' E 139°48'0 0.0
2016-May-21 14:33N 35°29' E 139°48'0 0.0
2016-May-21 13:33N 35°29' E 139°48'0 0.0
2016-May-21 12:33N 35°29' E 139°48'0 0.0
2016-May-21 11:33N 35°29' E 139°48'0 0.0
2016-May-21 10:33N 35°29' E 139°48'0 0.0
2016-May-21 09:33N 35°29' E 139°48'0 0.0
2016-May-21 08:33N 35°29' E 139°48'4 3.8
2016-May-21 07:33N 35°32' E 139°45'0 0.0
2016-May-21 06:33N 35°32' E 139°45'0 0.0
2016-May-21 05:33N 35°32' E 139°45'0 0.0
2016-May-21 04:30N 35°32' E 139°45'0 0.0
2016-May-21 03:33N 35°32' E 139°45'0 0.0
2016-May-21 02:33N 35°32' E 139°45'4 4.0
2016-May-21 01:32N 35°28' E 139°48'0 0.0
2016-May-21 00:32N 35°28' E 139°48'0 0.0
2016-May-20 23:29N 35°28' E 139°48'0 0.0
2016-May-20 22:32N 35°28' E 139°48'4 4.3
2016-May-20 21:34N 35°25' E 139°46'9 9.2
2016-May-20 20:33N 35°15' E 139°47'1110.5
2016-May-20 19:33N 35°05' E 139°45'  
Track history (hours):
 
Tides and Currents Weather Stations Pressure Air Temp Water Temp Dewpoint Dewpoint Depression Visibility Wind Speed Wind Dir Waves Ship Positions

Kyokuho Maru No.15

Last reported at 2016-May-30 06:33 UTC. Time now 2016-May-30 06:53 UTC.
Position N 35°27' E 139°40'.

Length 63 m; draft 3.2 m.

Type: Tanker. MMSI: 431301714.

Date/timePositionNaut miles runAvg speedWind from/ knotsBaromVisibWave heightAir tempDewpointWater temp
2016-May-30 06:33N 35°27' E 139°40'0 0.1
2016-May-30 05:33N 35°27' E 139°40'4 4.1
2016-May-30 04:33N 35°27' E 139°45'7 7.0
2016-May-30 03:34N 35°30' E 139°53'5 5.4
2016-May-30 02:33N 35°27' E 139°58'0 0.0
2016-May-30 01:34N 35°27' E 139°58'0 0.0
2016-May-30 00:34N 35°27' E 139°58'0 0.0
2016-May-29 23:33N 35°27' E 139°58'3 3.1
2016-May-29 22:34N 35°28' E 139°55'0 0.0
2016-May-29 21:33N 35°28' E 139°55'0 0.0
2016-May-29 20:34N 35°28' E 139°55'0 0.0
2016-May-29 19:34N 35°28' E 139°55'0 0.0
2016-May-29 18:34N 35°28' E 139°55'0 0.0
2016-May-29 17:33N 35°28' E 139°55'0 0.0
2016-May-29 16:34N 35°28' E 139°55'0 0.0
2016-May-29 15:34N 35°28' E 139°55'8 8.4
2016-May-29 14:33N 35°24' E 139°46'1010.2
2016-May-29 13:33N 35°14' E 139°47'2411.1
2016-May-29 11:23N 34°55' E 139°29'  
2016-May-25 05:14N 34°35' E 134°53'710.1
2016-May-25 04:31N 34°37' E 135°01'1010.7
2016-May-25 03:33N 34°37' E 135°14'10 8.8
2016-May-25 02:25N 34°40' E 135°25'0 0.0
2016-May-25 01:31N 34°40' E 135°25'0 0.0
2016-May-25 00:31N 34°40' E 135°25'0 0.0
2016-May-24 23:32N 34°40' E 135°25'3 2.9
2016-May-24 22:31N 34°39' E 135°22'0 0.0
2016-May-24 21:31N 34°39' E 135°22'0 0.0
2016-May-24 20:19N 34°39' E 135°22'0 0.0
2016-May-24 19:31N 34°39' E 135°22'0 0.0
2016-May-24 18:31N 34°39' E 135°22'0 0.0
2016-May-24 17:31N 34°39' E 135°22'0 0.0
2016-May-24 16:19N 34°39' E 135°22'0 0.0
2016-May-24 15:07N 34°39' E 135°22'0 0.0
2016-May-24 14:31N 34°39' E 135°22'0 0.0
2016-May-24 13:33N 34°39' E 135°22'8 8.1
2016-May-24 12:33N 34°33' E 135°16'1212.1
2016-May-24 11:33N 34°23' E 135°08'1212.2
2016-May-24 10:33N 34°11' E 135°03'217 9.0
2016-May-23 10:33N 34°55' E 139°21'1010.2
2016-May-23 09:34N 35°01' E 139°30'1110.9
2016-May-23 08:33N 35°08' E 139°41'10 9.6
2016-May-23 07:33N 35°17' E 139°45'9 9.1
2016-May-23 06:34N 35°26' E 139°45'1010.5
2016-May-23 05:34N 35°31' E 139°56'5 5.0
2016-May-23 04:29N 35°31' E 140°02'0 0.0
2016-May-23 03:29N 35°31' E 140°02'0 0.0
2016-May-23 02:32N 35°31' E 140°02'0 0.0
2016-May-23 01:33N 35°31' E 140°02'0 0.0
2016-May-23 00:33N 35°31' E 140°02'1 0.8
2016-May-22 23:32N 35°31' E 140°01'0 0.0
2016-May-22 22:32N 35°31' E 140°01'3 2.6
2016-May-22 21:33N 35°31' E 139°58'1110.7
2016-May-22 20:33N 35°28' E 139°46'5 4.6
2016-May-22 19:32N 35°27' E 139°40'0 0.0
2016-May-22 18:32N 35°27' E 139°40'0 0.0
2016-May-22 17:29N 35°27' E 139°40'0 0.0
2016-May-22 16:32N 35°27' E 139°40'0 0.0
2016-May-22 15:32N 35°27' E 139°40'0 0.0
2016-May-22 14:32N 35°27' E 139°40'0 0.0
2016-May-22 13:32N 35°27' E 139°40'0 0.0
2016-May-22 12:32N 35°27' E 139°40'0 0.0
2016-May-22 11:32N 35°27' E 139°40'0 0.0
2016-May-22 10:32N 35°27' E 139°40'0 0.0
2016-May-22 09:32N 35°27' E 139°40'0 0.0
2016-May-22 08:32N 35°27' E 139°40'0 0.0
2016-May-22 07:32N 35°27' E 139°40'0 0.0
2016-May-22 06:32N 35°27' E 139°40'0 0.0
2016-May-22 05:32N 35°27' E 139°40'0 0.0
2016-May-22 04:32N 35°27' E 139°40'0 0.0
2016-May-22 03:32N 35°27' E 139°40'0 0.0
2016-May-22 02:32N 35°27' E 139°40'0 0.0
2016-May-22 01:32N 35°27' E 139°40'0 0.0
2016-May-22 00:32N 35°27' E 139°40'0 0.0
2016-May-21 23:32N 35°27' E 139°40'2 2.1
2016-May-21 22:33N 35°27' E 139°42'5 5.4
2016-May-21 21:33N 35°29' E 139°48'0 0.0
2016-May-21 20:33N 35°29' E 139°48'0 0.0
2016-May-21 19:33N 35°29' E 139°48'0 0.0
2016-May-21 18:33N 35°29' E 139°48'0 0.0
2016-May-21 17:33N 35°29' E 139°48'0 0.0
2016-May-21 16:33N 35°29' E 139°48'0 0.0
2016-May-21 15:33N 35°29' E 139°48'0 0.0
2016-May-21 14:33N 35°29' E 139°48'0 0.0
2016-May-21 13:33N 35°29' E 139°48'0 0.0
2016-May-21 12:33N 35°29' E 139°48'0 0.0
2016-May-21 11:33N 35°29' E 139°48'0 0.0
2016-May-21 10:33N 35°29' E 139°48'0 0.0
2016-May-21 09:33N 35°29' E 139°48'0 0.0
2016-May-21 08:33N 35°29' E 139°48'4 3.8
2016-May-21 07:33N 35°32' E 139°45'0 0.0
2016-May-21 06:33N 35°32' E 139°45'0 0.0
2016-May-21 05:33N 35°32' E 139°45'0 0.0
2016-May-21 04:30N 35°32' E 139°45'0 0.0
2016-May-21 03:33N 35°32' E 139°45'0 0.0
2016-May-21 02:33N 35°32' E 139°45'4 4.0
2016-May-21 01:32N 35°28' E 139°48'0 0.0
2016-May-21 00:32N 35°28' E 139°48'0 0.0
2016-May-20 23:29N 35°28' E 139°48'0 0.0
2016-May-20 22:32N 35°28' E 139°48'4 4.3
2016-May-20 21:34N 35°25' E 139°46'9 9.2
2016-May-20 20:33N 35°15' E 139°47'1110.5
2016-May-20 19:33N 35°05' E 139°45'  

Dump ship's entire track history